sensor_id;sensor_type;location;lat;lon;timestamp;temperature;humidity
25300;DHT22;13241;51.208;4.432;2022-08-19T00:02:02;21.00;99.90
25300;DHT22;13241;51.208;4.432;2022-08-19T00:04:31;21.00;99.90
25300;DHT22;13241;51.208;4.432;2022-08-19T00:06:59;21.00;99.90
25300;DHT22;13241;51.208;4.432;2022-08-19T00:09:28;21.00;99.90
25300;DHT22;13241;51.208;4.432;2022-08-19T00:11:56;21.00;99.90
25300;DHT22;13241;51.208;4.432;2022-08-19T00:14:26;21.00;99.90
25300;DHT22;13241;51.208;4.432;2022-08-19T00:16:54;21.00;99.90
25300;DHT22;13241;51.208;4.432;2022-08-19T00:19:22;20.90;99.90
25300;DHT22;13241;51.208;4.432;2022-08-19T00:21:49;20.80;99.90
25300;DHT22;13241;51.208;4.432;2022-08-19T00:24:18;20.80;99.90
25300;DHT22;13241;51.208;4.432;2022-08-19T00:26:45;20.70;99.90
25300;DHT22;13241;51.208;4.432;2022-08-19T00:29:15;20.80;99.90
25300;DHT22;13241;51.208;4.432;2022-08-19T00:31:43;20.70;99.90
25300;DHT22;13241;51.208;4.432;2022-08-19T00:34:11;20.70;99.90
25300;DHT22;13241;51.208;4.432;2022-08-19T00:36:39;20.60;99.90
25300;DHT22;13241;51.208;4.432;2022-08-19T00:39:08;20.50;99.90
25300;DHT22;13241;51.208;4.432;2022-08-19T00:41:35;20.50;99.90
25300;DHT22;13241;51.208;4.432;2022-08-19T00:44:07;20.50;99.90
25300;DHT22;13241;51.208;4.432;2022-08-19T00:46:35;20.40;99.90
25300;DHT22;13241;51.208;4.432;2022-08-19T00:51:55;20.40;99.90
25300;DHT22;13241;51.208;4.432;2022-08-19T00:54:23;20.40;99.90
25300;DHT22;13241;51.208;4.432;2022-08-19T00:56:58;20.30;99.90
25300;DHT22;13241;51.208;4.432;2022-08-19T00:59:28;20.20;99.90
25300;DHT22;13241;51.208;4.432;2022-08-19T01:02:16;20.30;99.90
25300;DHT22;13241;51.208;4.432;2022-08-19T01:04:43;20.30;99.90
25300;DHT22;13241;51.208;4.432;2022-08-19T01:07:10;20.30;99.90
25300;DHT22;13241;51.208;4.432;2022-08-19T01:09:46;20.20;99.90
25300;DHT22;13241;51.208;4.432;2022-08-19T01:12:13;20.20;99.90
25300;DHT22;13241;51.208;4.432;2022-08-19T01:14:40;20.20;99.90
25300;DHT22;13241;51.208;4.432;2022-08-19T01:17:09;20.10;99.90
25300;DHT22;13241;51.208;4.432;2022-08-19T01:19:40;20.10;99.90
25300;DHT22;13241;51.208;4.432;2022-08-19T01:24:42;20.10;99.90
25300;DHT22;13241;51.208;4.432;2022-08-19T01:27:16;20.00;99.90
25300;DHT22;13241;51.208;4.432;2022-08-19T01:29:44;20.00;99.90
25300;DHT22;13241;51.208;4.432;2022-08-19T01:32:14;20.10;99.90
25300;DHT22;13241;51.208;4.432;2022-08-19T01:35:01;20.10;99.90
25300;DHT22;13241;51.208;4.432;2022-08-19T01:37:29;20.00;99.90
25300;DHT22;13241;51.208;4.432;2022-08-19T01:39:57;20.00;99.90
25300;DHT22;13241;51.208;4.432;2022-08-19T01:42:24;20.00;99.90
25300;DHT22;13241;51.208;4.432;2022-08-19T01:44:56;20.00;99.90
25300;DHT22;13241;51.208;4.432;2022-08-19T01:47:23;20.10;99.90
25300;DHT22;13241;51.208;4.432;2022-08-19T01:49:50;20.10;99.90
25300;DHT22;13241;51.208;4.432;2022-08-19T01:52:17;20.00;99.90
25300;DHT22;13241;51.208;4.432;2022-08-19T01:54:46;19.90;99.90
25300;DHT22;13241;51.208;4.432;2022-08-19T01:57:14;20.00;99.90
25300;DHT22;13241;51.208;4.432;2022-08-19T01:59:42;20.00;99.90
25300;DHT22;13241;51.208;4.432;2022-08-19T02:02:10;20.00;99.90
25300;DHT22;13241;51.208;4.432;2022-08-19T02:04:38;19.90;99.90
25300;DHT22;13241;51.208;4.432;2022-08-19T02:07:07;19.80;99.90
25300;DHT22;13241;51.208;4.432;2022-08-19T02:09:35;19.80;99.90
25300;DHT22;13241;51.208;4.432;2022-08-19T02:12:03;19.80;99.90
25300;DHT22;13241;51.208;4.432;2022-08-19T02:14:30;19.80;99.90
25300;DHT22;13241;51.208;4.432;2022-08-19T02:16:59;19.90;99.90
25300;DHT22;13241;51.208;4.432;2022-08-19T02:19:27;19.60;99.90
25300;DHT22;13241;51.208;4.432;2022-08-19T02:21:54;19.60;99.90
25300;DHT22;13241;51.208;4.432;2022-08-19T02:24:21;19.60;99.90
25300;DHT22;13241;51.208;4.432;2022-08-19T02:26:48;19.60;99.90
25300;DHT22;13241;51.208;4.432;2022-08-19T02:29:15;19.50;99.90
25300;DHT22;13241;51.208;4.432;2022-08-19T02:31:42;19.50;99.90
25300;DHT22;13241;51.208;4.432;2022-08-19T02:34:09;19.40;99.90
25300;DHT22;13241;51.208;4.432;2022-08-19T02:36:36;19.50;99.90
25300;DHT22;13241;51.208;4.432;2022-08-19T02:39:09;19.40;99.90
25300;DHT22;13241;51.208;4.432;2022-08-19T02:41:37;19.40;99.90
25300;DHT22;13241;51.208;4.432;2022-08-19T02:44:06;19.20;99.90
25300;DHT22;13241;51.208;4.432;2022-08-19T02:46:56;19.30;99.90
25300;DHT22;13241;51.208;4.432;2022-08-19T02:49:22;19.30;99.90
25300;DHT22;13241;51.208;4.432;2022-08-19T02:51:50;19.30;99.90
25300;DHT22;13241;51.208;4.432;2022-08-19T02:54:19;19.30;99.90
25300;DHT22;13241;51.208;4.432;2022-08-19T02:56:49;19.20;99.90
25300;DHT22;13241;51.208;4.432;2022-08-19T02:59:17;19.20;99.90
25300;DHT22;13241;51.208;4.432;2022-08-19T03:01:48;19.20;99.90
25300;DHT22;13241;51.208;4.432;2022-08-19T03:04:16;19.20;99.90
25300;DHT22;13241;51.208;4.432;2022-08-19T03:06:45;19.20;99.90
25300;DHT22;13241;51.208;4.432;2022-08-19T03:09:12;19.20;99.90
25300;DHT22;13241;51.208;4.432;2022-08-19T03:11:40;19.20;99.90
25300;DHT22;13241;51.208;4.432;2022-08-19T03:14:08;19.20;99.90
25300;DHT22;13241;51.208;4.432;2022-08-19T03:16:43;19.20;99.90
25300;DHT22;13241;51.208;4.432;2022-08-19T03:19:11;19.30;99.90
25300;DHT22;13241;51.208;4.432;2022-08-19T03:21:38;19.10;99.90
25300;DHT22;13241;51.208;4.432;2022-08-19T03:24:08;19.10;99.90
25300;DHT22;13241;51.208;4.432;2022-08-19T03:26:39;19.10;99.90
25300;DHT22;13241;51.208;4.432;2022-08-19T03:29:09;19.00;99.90
25300;DHT22;13241;51.208;4.432;2022-08-19T03:31:41;19.00;99.90
25300;DHT22;13241;51.208;4.432;2022-08-19T03:34:24;18.90;99.90
25300;DHT22;13241;51.208;4.432;2022-08-19T03:36:56;18.60;99.90
25300;DHT22;13241;51.208;4.432;2022-08-19T03:39:24;18.90;99.90
25300;DHT22;13241;51.208;4.432;2022-08-19T03:41:53;18.70;99.90
25300;DHT22;13241;51.208;4.432;2022-08-19T03:44:42;18.80;99.90
25300;DHT22;13241;51.208;4.432;2022-08-19T03:47:11;18.80;99.90
25300;DHT22;13241;51.208;4.432;2022-08-19T03:49:43;18.80;99.90
25300;DHT22;13241;51.208;4.432;2022-08-19T03:52:11;18.80;99.90
25300;DHT22;13241;51.208;4.432;2022-08-19T03:54:38;18.80;99.90
25300;DHT22;13241;51.208;4.432;2022-08-19T03:57:06;18.70;99.90
25300;DHT22;13241;51.208;4.432;2022-08-19T03:59:38;18.70;99.90
25300;DHT22;13241;51.208;4.432;2022-08-19T04:02:10;18.90;99.90
25300;DHT22;13241;51.208;4.432;2022-08-19T04:04:39;18.80;99.90
25300;DHT22;13241;51.208;4.432;2022-08-19T04:07:06;18.80;99.90
25300;DHT22;13241;51.208;4.432;2022-08-19T04:09:35;18.70;99.90
25300;DHT22;13241;51.208;4.432;2022-08-19T04:12:04;18.60;99.90
25300;DHT22;13241;51.208;4.432;2022-08-19T04:14:32;18.60;99.90
25300;DHT22;13241;51.208;4.432;2022-08-19T04:17:01;18.60;99.90
25300;DHT22;13241;51.208;4.432;2022-08-19T04:19:30;18.60;99.90
25300;DHT22;13241;51.208;4.432;2022-08-19T04:21:59;18.50;99.90
25300;DHT22;13241;51.208;4.432;2022-08-19T04:24:26;18.50;99.90
25300;DHT22;13241;51.208;4.432;2022-08-19T04:26:53;18.40;99.90
25300;DHT22;13241;51.208;4.432;2022-08-19T04:29:23;18.50;99.90
25300;DHT22;13241;51.208;4.432;2022-08-19T04:31:53;18.50;99.90
25300;DHT22;13241;51.208;4.432;2022-08-19T04:34:23;18.50;99.90
25300;DHT22;13241;51.208;4.432;2022-08-19T04:36:52;18.40;99.90
25300;DHT22;13241;51.208;4.432;2022-08-19T04:39:23;18.40;99.90
25300;DHT22;13241;51.208;4.432;2022-08-19T04:42:11;18.40;99.90
25300;DHT22;13241;51.208;4.432;2022-08-19T04:44:58;18.40;99.90
25300;DHT22;13241;51.208;4.432;2022-08-19T04:47:27;18.40;99.90
25300;DHT22;13241;51.208;4.432;2022-08-19T04:50:15;18.60;99.90
25300;DHT22;13241;51.208;4.432;2022-08-19T04:52:44;18.40;99.90
25300;DHT22;13241;51.208;4.432;2022-08-19T04:55:12;18.50;99.90
25300;DHT22;13241;51.208;4.432;2022-08-19T04:57:42;18.30;99.90
25300;DHT22;13241;51.208;4.432;2022-08-19T05:00:10;18.30;99.90
25300;DHT22;13241;51.208;4.432;2022-08-19T05:02:39;18.40;99.90
25300;DHT22;13241;51.208;4.432;2022-08-19T05:05:07;18.40;99.90
25300;DHT22;13241;51.208;4.432;2022-08-19T05:07:40;18.40;99.90
25300;DHT22;13241;51.208;4.432;2022-08-19T05:10:09;18.40;99.90
25300;DHT22;13241;51.208;4.432;2022-08-19T05:12:35;18.40;99.90
25300;DHT22;13241;51.208;4.432;2022-08-19T05:15:04;18.50;99.90
25300;DHT22;13241;51.208;4.432;2022-08-19T05:17:34;18.40;99.90
25300;DHT22;13241;51.208;4.432;2022-08-19T05:20:08;18.40;99.90
25300;DHT22;13241;51.208;4.432;2022-08-19T05:23:11;18.40;99.90
25300;DHT22;13241;51.208;4.432;2022-08-19T05:25:49;18.40;99.90
25300;DHT22;13241;51.208;4.432;2022-08-19T05:28:17;18.50;99.90
25300;DHT22;13241;51.208;4.432;2022-08-19T05:30:45;18.50;99.90
25300;DHT22;13241;51.208;4.432;2022-08-19T05:33:25;18.60;99.90
25300;DHT22;13241;51.208;4.432;2022-08-19T05:36:21;18.60;99.90
25300;DHT22;13241;51.208;4.432;2022-08-19T05:38:48;18.60;99.90
25300;DHT22;13241;51.208;4.432;2022-08-19T05:41:16;18.60;99.90
25300;DHT22;13241;51.208;4.432;2022-08-19T05:43:43;18.70;99.90
25300;DHT22;13241;51.208;4.432;2022-08-19T05:46:20;18.80;99.90
25300;DHT22;13241;51.208;4.432;2022-08-19T05:48:54;19.00;99.90
25300;DHT22;13241;51.208;4.432;2022-08-19T05:51:25;19.00;99.90
25300;DHT22;13241;51.208;4.432;2022-08-19T05:53:55;19.00;99.90
25300;DHT22;13241;51.208;4.432;2022-08-19T05:56:22;19.10;99.90
25300;DHT22;13241;51.208;4.432;2022-08-19T05:58:49;19.20;99.90
25300;DHT22;13241;51.208;4.432;2022-08-19T06:01:17;19.30;99.90
25300;DHT22;13241;51.208;4.432;2022-08-19T06:03:45;19.40;99.90
25300;DHT22;13241;51.208;4.432;2022-08-19T06:06:14;19.40;99.90
25300;DHT22;13241;51.208;4.432;2022-08-19T06:08:42;19.50;99.90
25300;DHT22;13241;51.208;4.432;2022-08-19T06:13:40;19.70;99.90
25300;DHT22;13241;51.208;4.432;2022-08-19T06:16:07;19.80;99.90
25300;DHT22;13241;51.208;4.432;2022-08-19T06:18:36;20.00;99.90
25300;DHT22;13241;51.208;4.432;2022-08-19T06:21:04;20.20;99.90
25300;DHT22;13241;51.208;4.432;2022-08-19T06:23:56;20.30;99.90
25300;DHT22;13241;51.208;4.432;2022-08-19T06:26:23;20.40;99.90
25300;DHT22;13241;51.208;4.432;2022-08-19T06:28:51;20.40;99.90
25300;DHT22;13241;51.208;4.432;2022-08-19T06:31:23;20.40;99.90
25300;DHT22;13241;51.208;4.432;2022-08-19T06:33:51;20.60;99.90
25300;DHT22;13241;51.208;4.432;2022-08-19T06:36:21;20.60;99.90
25300;DHT22;13241;51.208;4.432;2022-08-19T06:38:54;20.60;99.90
25300;DHT22;13241;51.208;4.432;2022-08-19T06:41:20;20.60;99.90
25300;DHT22;13241;51.208;4.432;2022-08-19T06:43:47;20.60;99.90
25300;DHT22;13241;51.208;4.432;2022-08-19T06:46:20;20.60;99.90
25300;DHT22;13241;51.208;4.432;2022-08-19T06:48:47;20.60;99.90
25300;DHT22;13241;51.208;4.432;2022-08-19T06:51:17;20.60;99.90
25300;DHT22;13241;51.208;4.432;2022-08-19T06:53:50;20.70;99.90
25300;DHT22;13241;51.208;4.432;2022-08-19T06:56:24;20.60;99.90
25300;DHT22;13241;51.208;4.432;2022-08-19T06:58:53;20.70;99.90
25300;DHT22;13241;51.208;4.432;2022-08-19T07:01:20;20.80;99.90
25300;DHT22;13241;51.208;4.432;2022-08-19T07:03:47;20.90;99.90
25300;DHT22;13241;51.208;4.432;2022-08-19T07:06:17;20.90;99.90
25300;DHT22;13241;51.208;4.432;2022-08-19T07:09:08;21.00;99.90
25300;DHT22;13241;51.208;4.432;2022-08-19T07:11:35;21.20;99.90
25300;DHT22;13241;51.208;4.432;2022-08-19T07:14:02;21.30;99.90
25300;DHT22;13241;51.208;4.432;2022-08-19T07:16:30;21.50;99.90
25300;DHT22;13241;51.208;4.432;2022-08-19T07:18:58;21.80;99.90
25300;DHT22;13241;51.208;4.432;2022-08-19T07:21:41;21.70;99.90
25300;DHT22;13241;51.208;4.432;2022-08-19T07:24:09;21.70;99.90
25300;DHT22;13241;51.208;4.432;2022-08-19T07:26:42;21.70;99.90
25300;DHT22;13241;51.208;4.432;2022-08-19T07:29:09;21.70;99.90
25300;DHT22;13241;51.208;4.432;2022-08-19T07:31:37;21.70;99.90
25300;DHT22;13241;51.208;4.432;2022-08-19T07:34:07;21.70;99.90
25300;DHT22;13241;51.208;4.432;2022-08-19T07:36:37;21.60;99.90
25300;DHT22;13241;51.208;4.432;2022-08-19T07:39:12;21.60;99.90
25300;DHT22;13241;51.208;4.432;2022-08-19T07:41:45;21.70;99.90
25300;DHT22;13241;51.208;4.432;2022-08-19T07:44:13;21.80;99.90
25300;DHT22;13241;51.208;4.432;2022-08-19T07:46:47;21.90;99.90
25300;DHT22;13241;51.208;4.432;2022-08-19T07:49:19;22.10;99.90
25300;DHT22;13241;51.208;4.432;2022-08-19T07:51:49;22.10;99.90
25300;DHT22;13241;51.208;4.432;2022-08-19T07:54:17;22.20;99.90
25300;DHT22;13241;51.208;4.432;2022-08-19T07:56:45;22.30;99.90
25300;DHT22;13241;51.208;4.432;2022-08-19T07:59:12;22.30;99.90
25300;DHT22;13241;51.208;4.432;2022-08-19T08:01:39;22.30;99.90
25300;DHT22;13241;51.208;4.432;2022-08-19T08:04:07;22.30;99.90
25300;DHT22;13241;51.208;4.432;2022-08-19T08:06:53;22.20;99.90
25300;DHT22;13241;51.208;4.432;2022-08-19T08:09:42;22.20;99.90
25300;DHT22;13241;51.208;4.432;2022-08-19T08:12:28;22.30;99.90
25300;DHT22;13241;51.208;4.432;2022-08-19T08:15:08;22.40;99.90
25300;DHT22;13241;51.208;4.432;2022-08-19T08:17:38;22.40;99.90
25300;DHT22;13241;51.208;4.432;2022-08-19T08:20:17;22.40;99.90
25300;DHT22;13241;51.208;4.432;2022-08-19T08:22:46;22.40;99.90
25300;DHT22;13241;51.208;4.432;2022-08-19T08:25:32;22.50;99.90
25300;DHT22;13241;51.208;4.432;2022-08-19T08:28:02;22.50;99.90
25300;DHT22;13241;51.208;4.432;2022-08-19T08:30:31;22.60;99.90
25300;DHT22;13241;51.208;4.432;2022-08-19T08:33:00;22.70;99.90
25300;DHT22;13241;51.208;4.432;2022-08-19T08:35:28;22.70;99.90
25300;DHT22;13241;51.208;4.432;2022-08-19T08:37:55;22.70;99.90
25300;DHT22;13241;51.208;4.432;2022-08-19T08:46:12;23.10;99.90
25300;DHT22;13241;51.208;4.432;2022-08-19T08:51:48;23.30;99.90
25300;DHT22;13241;51.208;4.432;2022-08-19T08:54:35;23.20;99.90
25300;DHT22;13241;51.208;4.432;2022-08-19T08:57:05;23.00;99.90
25300;DHT22;13241;51.208;4.432;2022-08-19T08:59:37;22.80;99.90
25300;DHT22;13241;51.208;4.432;2022-08-19T09:02:05;22.70;99.90
25300;DHT22;13241;51.208;4.432;2022-08-19T09:04:34;22.60;99.90
25300;DHT22;13241;51.208;4.432;2022-08-19T09:07:55;22.70;99.90
25300;DHT22;13241;51.208;4.432;2022-08-19T09:15:45;22.80;99.90
25300;DHT22;13241;51.208;4.432;2022-08-19T09:18:15;22.80;99.90
25300;DHT22;13241;51.208;4.432;2022-08-19T09:20:45;22.70;99.90
25300;DHT22;13241;51.208;4.432;2022-08-19T09:23:14;23.00;99.90
25300;DHT22;13241;51.208;4.432;2022-08-19T09:25:41;22.90;99.90
25300;DHT22;13241;51.208;4.432;2022-08-19T09:28:08;22.90;99.90
25300;DHT22;13241;51.208;4.432;2022-08-19T09:30:47;22.70;99.90
25300;DHT22;13241;51.208;4.432;2022-08-19T09:33:14;22.90;99.90
25300;DHT22;13241;51.208;4.432;2022-08-19T09:35:42;22.70;99.90
25300;DHT22;13241;51.208;4.432;2022-08-19T09:38:20;22.80;99.90
25300;DHT22;13241;51.208;4.432;2022-08-19T09:40:47;22.90;99.90
25300;DHT22;13241;51.208;4.432;2022-08-19T09:43:14;22.90;99.90
25300;DHT22;13241;51.208;4.432;2022-08-19T09:45:59;22.90;99.90
25300;DHT22;13241;51.208;4.432;2022-08-19T09:48:27;22.90;99.90
25300;DHT22;13241;51.208;4.432;2022-08-19T09:50:54;23.00;99.90
25300;DHT22;13241;51.208;4.432;2022-08-19T09:53:21;23.00;99.90
25300;DHT22;13241;51.208;4.432;2022-08-19T09:55:51;23.20;99.90
25300;DHT22;13241;51.208;4.432;2022-08-19T09:58:18;23.30;99.90
25300;DHT22;13241;51.208;4.432;2022-08-19T10:00:51;23.30;99.90
25300;DHT22;13241;51.208;4.432;2022-08-19T10:03:20;23.30;99.90
25300;DHT22;13241;51.208;4.432;2022-08-19T10:05:52;23.40;99.90
25300;DHT22;13241;51.208;4.432;2022-08-19T10:08:27;23.40;99.90
25300;DHT22;13241;51.208;4.432;2022-08-19T10:10:56;23.40;99.90
25300;DHT22;13241;51.208;4.432;2022-08-19T10:13:27;23.50;99.90
25300;DHT22;13241;51.208;4.432;2022-08-19T10:15:57;23.50;99.90
25300;DHT22;13241;51.208;4.432;2022-08-19T10:18:28;23.80;99.90
25300;DHT22;13241;51.208;4.432;2022-08-19T10:21:07;23.60;99.90
25300;DHT22;13241;51.208;4.432;2022-08-19T10:23:39;23.70;99.90
25300;DHT22;13241;51.208;4.432;2022-08-19T10:26:07;23.70;99.90
25300;DHT22;13241;51.208;4.432;2022-08-19T10:28:35;23.80;99.90
25300;DHT22;13241;51.208;4.432;2022-08-19T10:31:11;23.90;99.90
25300;DHT22;13241;51.208;4.432;2022-08-19T10:33:40;23.90;99.90
25300;DHT22;13241;51.208;4.432;2022-08-19T10:36:22;24.00;99.90
25300;DHT22;13241;51.208;4.432;2022-08-19T10:38:51;24.00;99.90
25300;DHT22;13241;51.208;4.432;2022-08-19T10:41:31;24.20;99.90
25300;DHT22;13241;51.208;4.432;2022-08-19T10:44:01;23.90;99.90
25300;DHT22;13241;51.208;4.432;2022-08-19T10:46:31;24.00;99.90
25300;DHT22;13241;51.208;4.432;2022-08-19T10:49:00;24.00;99.90
25300;DHT22;13241;51.208;4.432;2022-08-19T10:51:28;24.00;99.90
25300;DHT22;13241;51.208;4.432;2022-08-19T10:54:15;23.90;99.90
25300;DHT22;13241;51.208;4.432;2022-08-19T10:56:58;23.90;99.90
25300;DHT22;13241;51.208;4.432;2022-08-19T10:59:28;24.00;99.90
25300;DHT22;13241;51.208;4.432;2022-08-19T11:02:05;24.00;99.90
25300;DHT22;13241;51.208;4.432;2022-08-19T11:04:39;24.00;99.90
25300;DHT22;13241;51.208;4.432;2022-08-19T11:07:07;24.00;99.90
25300;DHT22;13241;51.208;4.432;2022-08-19T11:09:41;24.00;99.90
25300;DHT22;13241;51.208;4.432;2022-08-19T11:12:09;24.20;99.90
25300;DHT22;13241;51.208;4.432;2022-08-19T11:14:37;24.30;99.90
25300;DHT22;13241;51.208;4.432;2022-08-19T11:17:05;24.50;99.90
25300;DHT22;13241;51.208;4.432;2022-08-19T11:19:32;24.70;99.90
25300;DHT22;13241;51.208;4.432;2022-08-19T11:22:01;24.70;99.90
25300;DHT22;13241;51.208;4.432;2022-08-19T11:24:30;24.70;99.90
25300;DHT22;13241;51.208;4.432;2022-08-19T11:27:05;24.70;99.90
25300;DHT22;13241;51.208;4.432;2022-08-19T11:29:33;24.60;99.90
25300;DHT22;13241;51.208;4.432;2022-08-19T11:32:04;24.60;99.90
25300;DHT22;13241;51.208;4.432;2022-08-19T11:34:32;24.50;99.90
25300;DHT22;13241;51.208;4.432;2022-08-19T11:36:59;24.70;99.90
25300;DHT22;13241;51.208;4.432;2022-08-19T11:39:29;25.00;99.90
25300;DHT22;13241;51.208;4.432;2022-08-19T11:42:00;25.40;99.90
25300;DHT22;13241;51.208;4.432;2022-08-19T11:44:30;25.80;99.90
25300;DHT22;13241;51.208;4.432;2022-08-19T11:46:57;26.10;99.90
25300;DHT22;13241;51.208;4.432;2022-08-19T11:49:34;26.30;99.90
25300;DHT22;13241;51.208;4.432;2022-08-19T11:52:02;26.50;99.90
25300;DHT22;13241;51.208;4.432;2022-08-19T11:54:29;26.50;99.90
25300;DHT22;13241;51.208;4.432;2022-08-19T11:56:57;26.60;99.90
25300;DHT22;13241;51.208;4.432;2022-08-19T11:59:24;26.60;99.90
25300;DHT22;13241;51.208;4.432;2022-08-19T12:01:53;26.60;99.90
25300;DHT22;13241;51.208;4.432;2022-08-19T12:04:23;26.40;99.90
25300;DHT22;13241;51.208;4.432;2022-08-19T12:06:51;26.30;99.90
25300;DHT22;13241;51.208;4.432;2022-08-19T12:09:20;26.10;99.90
25300;DHT22;13241;51.208;4.432;2022-08-19T12:11:57;26.50;99.90
25300;DHT22;13241;51.208;4.432;2022-08-19T12:14:24;26.60;99.90
25300;DHT22;13241;51.208;4.432;2022-08-19T12:16:52;26.70;99.90
25300;DHT22;13241;51.208;4.432;2022-08-19T12:19:19;26.80;99.90
25300;DHT22;13241;51.208;4.432;2022-08-19T12:21:48;26.80;99.90
25300;DHT22;13241;51.208;4.432;2022-08-19T12:24:15;26.80;99.90
25300;DHT22;13241;51.208;4.432;2022-08-19T12:26:48;26.80;99.90
25300;DHT22;13241;51.208;4.432;2022-08-19T12:29:19;27.00;99.90
25300;DHT22;13241;51.208;4.432;2022-08-19T12:31:50;27.30;99.90
25300;DHT22;13241;51.208;4.432;2022-08-19T12:34:17;27.50;99.90
25300;DHT22;13241;51.208;4.432;2022-08-19T12:36:49;27.60;99.90
25300;DHT22;13241;51.208;4.432;2022-08-19T12:39:16;27.70;99.90
25300;DHT22;13241;51.208;4.432;2022-08-19T12:41:43;27.60;99.90
25300;DHT22;13241;51.208;4.432;2022-08-19T12:44:21;27.40;99.90
25300;DHT22;13241;51.208;4.432;2022-08-19T12:46:56;27.20;99.90
25300;DHT22;13241;51.208;4.432;2022-08-19T12:49:23;27.10;99.90
25300;DHT22;13241;51.208;4.432;2022-08-19T12:52:11;27.10;99.90
25300;DHT22;13241;51.208;4.432;2022-08-19T12:54:42;27.20;99.90
25300;DHT22;13241;51.208;4.432;2022-08-19T12:57:10;26.90;99.90
25300;DHT22;13241;51.208;4.432;2022-08-19T12:59:38;26.80;99.90
25300;DHT22;13241;51.208;4.432;2022-08-19T13:02:06;26.70;99.90
25300;DHT22;13241;51.208;4.432;2022-08-19T13:04:34;26.80;99.90
25300;DHT22;13241;51.208;4.432;2022-08-19T13:07:07;26.70;99.90
25300;DHT22;13241;51.208;4.432;2022-08-19T13:09:35;26.60;99.90
25300;DHT22;13241;51.208;4.432;2022-08-19T13:12:03;26.60;99.90
25300;DHT22;13241;51.208;4.432;2022-08-19T13:14:34;26.40;99.90
25300;DHT22;13241;51.208;4.432;2022-08-19T13:17:02;26.40;99.90
25300;DHT22;13241;51.208;4.432;2022-08-19T13:19:29;26.40;99.90
25300;DHT22;13241;51.208;4.432;2022-08-19T13:21:58;26.40;99.90
25300;DHT22;13241;51.208;4.432;2022-08-19T13:24:26;26.40;99.90
25300;DHT22;13241;51.208;4.432;2022-08-19T13:27:00;26.90;99.90
25300;DHT22;13241;51.208;4.432;2022-08-19T13:29:27;26.90;99.90
25300;DHT22;13241;51.208;4.432;2022-08-19T13:32:13;27.10;99.90
25300;DHT22;13241;51.208;4.432;2022-08-19T13:34:59;27.30;99.90
25300;DHT22;13241;51.208;4.432;2022-08-19T13:37:25;27.60;99.90
25300;DHT22;13241;51.208;4.432;2022-08-19T13:40:20;28.10;99.90
25300;DHT22;13241;51.208;4.432;2022-08-19T13:42:53;29.00;99.90
25300;DHT22;13241;51.208;4.432;2022-08-19T13:45:22;29.70;99.90
25300;DHT22;13241;51.208;4.432;2022-08-19T13:47:52;30.80;99.90
25300;DHT22;13241;51.208;4.432;2022-08-19T13:50:27;31.80;99.90
25300;DHT22;13241;51.208;4.432;2022-08-19T13:52:56;32.70;99.90
25300;DHT22;13241;51.208;4.432;2022-08-19T13:55:23;32.80;99.90
25300;DHT22;13241;51.208;4.432;2022-08-19T13:57:55;32.10;99.90
25300;DHT22;13241;51.208;4.432;2022-08-19T14:00:25;31.40;99.90
25300;DHT22;13241;51.208;4.432;2022-08-19T14:02:54;30.90;99.90
25300;DHT22;13241;51.208;4.432;2022-08-19T14:05:23;30.40;99.90
25300;DHT22;13241;51.208;4.432;2022-08-19T14:07:51;29.90;99.90
25300;DHT22;13241;51.208;4.432;2022-08-19T14:10:19;29.50;99.90
25300;DHT22;13241;51.208;4.432;2022-08-19T14:12:46;29.40;99.90
25300;DHT22;13241;51.208;4.432;2022-08-19T14:15:14;29.40;99.90
25300;DHT22;13241;51.208;4.432;2022-08-19T14:17:44;29.20;99.90
25300;DHT22;13241;51.208;4.432;2022-08-19T14:20:12;28.90;99.90
25300;DHT22;13241;51.208;4.432;2022-08-19T14:22:45;28.60;99.90
25300;DHT22;13241;51.208;4.432;2022-08-19T14:25:20;28.20;99.90
25300;DHT22;13241;51.208;4.432;2022-08-19T14:27:48;28.10;99.90
25300;DHT22;13241;51.208;4.432;2022-08-19T14:30:21;28.00;99.90
25300;DHT22;13241;51.208;4.432;2022-08-19T14:32:49;27.70;99.90
25300;DHT22;13241;51.208;4.432;2022-08-19T14:35:16;27.40;99.90
25300;DHT22;13241;51.208;4.432;2022-08-19T14:37:44;27.20;99.90
25300;DHT22;13241;51.208;4.432;2022-08-19T14:40:14;26.90;99.90
25300;DHT22;13241;51.208;4.432;2022-08-19T14:42:42;26.60;99.90
25300;DHT22;13241;51.208;4.432;2022-08-19T14:45:11;26.30;99.90
25300;DHT22;13241;51.208;4.432;2022-08-19T14:47:38;26.00;99.90
25300;DHT22;13241;51.208;4.432;2022-08-19T14:50:11;25.50;99.90
25300;DHT22;13241;51.208;4.432;2022-08-19T14:52:47;25.30;99.90
25300;DHT22;13241;51.208;4.432;2022-08-19T14:55:16;24.90;99.90
25300;DHT22;13241;51.208;4.432;2022-08-19T14:57:44;24.60;99.90
25300;DHT22;13241;51.208;4.432;2022-08-19T15:00:12;24.30;99.90
25300;DHT22;13241;51.208;4.432;2022-08-19T15:02:41;24.10;99.90
25300;DHT22;13241;51.208;4.432;2022-08-19T15:05:08;23.90;99.90
25300;DHT22;13241;51.208;4.432;2022-08-19T15:07:36;23.80;99.90
25300;DHT22;13241;51.208;4.432;2022-08-19T15:10:05;23.50;99.90
25300;DHT22;13241;51.208;4.432;2022-08-19T15:12:37;23.40;99.90
25300;DHT22;13241;51.208;4.432;2022-08-19T15:15:09;23.30;99.90
25300;DHT22;13241;51.208;4.432;2022-08-19T15:17:40;23.30;99.90
25300;DHT22;13241;51.208;4.432;2022-08-19T15:20:18;23.40;99.90
25300;DHT22;13241;51.208;4.432;2022-08-19T15:22:46;23.50;99.90
25300;DHT22;13241;51.208;4.432;2022-08-19T15:25:16;23.70;99.90
25300;DHT22;13241;51.208;4.432;2022-08-19T15:27:45;24.00;99.90
25300;DHT22;13241;51.208;4.432;2022-08-19T15:30:21;24.40;99.90
25300;DHT22;13241;51.208;4.432;2022-08-19T15:32:49;24.70;99.90
25300;DHT22;13241;51.208;4.432;2022-08-19T15:35:16;25.40;99.90
25300;DHT22;13241;51.208;4.432;2022-08-19T15:37:48;26.30;99.90
25300;DHT22;13241;51.208;4.432;2022-08-19T15:40:15;26.60;99.90
25300;DHT22;13241;51.208;4.432;2022-08-19T15:42:43;26.70;99.90
25300;DHT22;13241;51.208;4.432;2022-08-19T15:45:14;26.70;99.90
25300;DHT22;13241;51.208;4.432;2022-08-19T15:47:42;26.60;99.90
25300;DHT22;13241;51.208;4.432;2022-08-19T15:50:15;26.90;99.90
25300;DHT22;13241;51.208;4.432;2022-08-19T15:52:48;27.20;99.90
25300;DHT22;13241;51.208;4.432;2022-08-19T15:55:25;27.40;99.90
25300;DHT22;13241;51.208;4.432;2022-08-19T15:58:06;28.10;99.90
25300;DHT22;13241;51.208;4.432;2022-08-19T16:00:57;28.70;99.90
25300;DHT22;13241;51.208;4.432;2022-08-19T16:03:47;28.70;99.90
25300;DHT22;13241;51.208;4.432;2022-08-19T16:06:50;28.10;99.90
25300;DHT22;13241;51.208;4.432;2022-08-19T16:09:19;27.40;99.90
25300;DHT22;13241;51.208;4.432;2022-08-19T16:11:55;27.10;99.90
25300;DHT22;13241;51.208;4.432;2022-08-19T16:14:29;26.70;99.90
25300;DHT22;13241;51.208;4.432;2022-08-19T16:16:57;26.50;99.90